createdAt,value
2023-03-01T00:00:01.792Z,103104.19
2023-03-01T00:02:28.570Z,103109.03
2023-03-01T00:04:55.163Z,103079.22
2023-03-01T00:07:21.654Z,103065.88
2023-03-01T00:09:48.101Z,103033.63
2023-03-01T00:12:14.528Z,103051.53
2023-03-01T00:14:41.121Z,103053.94
2023-03-01T00:17:07.755Z,103042.44
2023-03-01T00:19:34.362Z,103014.25
2023-03-01T00:22:00.891Z,103056.97
2023-03-01T00:24:29.891Z,103069.31
2023-03-01T00:26:56.716Z,103040.81
2023-03-01T00:29:25.018Z,103048.56
2023-03-01T00:31:51.565Z,103049.63
2023-03-01T00:34:18.248Z,103035.38
2023-03-01T00:36:44.767Z,103047.13
2023-03-01T00:39:14.714Z,103051.28
2023-03-01T00:41:42.258Z,103045.50
2023-03-01T00:44:08.837Z,103015.69
2023-03-01T00:46:35.558Z,103053.03
2023-03-01T00:49:02.388Z,103009.84
2023-03-01T00:51:29.870Z,103036.50
2023-03-01T00:53:58.619Z,103044.13
2023-03-01T00:56:25.807Z,103043.13
2023-03-01T00:58:52.400Z,103029.09
2023-03-01T01:01:21.893Z,103019.00
2023-03-01T01:03:49.874Z,103040.28
2023-03-01T01:06:25.845Z,103033.41
2023-03-01T01:08:53.487Z,103050.53
2023-03-01T01:11:20.672Z,103017.25
2023-03-01T01:13:48.323Z,103014.75
2023-03-01T01:16:16.002Z,102987.38
2023-03-01T01:18:42.935Z,102994.09
2023-03-01T01:21:12.719Z,103002.69
2023-03-01T01:23:40.999Z,102951.94
2023-03-01T01:26:15.160Z,102964.06
2023-03-01T01:28:41.888Z,102986.47
2023-03-01T01:31:09.029Z,102990.09
2023-03-01T01:33:35.761Z,103018.91
2023-03-01T01:36:02.319Z,103018.31
2023-03-01T01:38:28.810Z,103027.50
2023-03-01T01:40:55.401Z,103029.22
2023-03-01T01:43:26.813Z,103020.78
2023-03-01T01:46:00.431Z,103026.44
2023-03-01T01:48:33.779Z,103038.13
2023-03-01T01:51:01.805Z,103035.31
2023-03-01T01:53:28.266Z,103050.47
2023-03-01T01:55:59.382Z,103064.47
2023-03-01T01:58:29.983Z,103056.41
2023-03-01T02:00:56.559Z,103070.94
2023-03-01T02:03:30.752Z,103009.88
2023-03-01T02:06:27.758Z,103068.53
2023-03-01T02:08:54.524Z,103004.63
2023-03-01T02:11:21.839Z,103062.28
2023-03-01T02:13:49.142Z,103001.91
2023-03-01T02:16:16.524Z,103001.97
2023-03-01T02:18:44.330Z,103081.19
2023-03-01T02:21:49.410Z,103071.91
2023-03-01T02:24:31.033Z,103076.75
2023-03-01T02:26:58.625Z,103053.81
2023-03-01T02:29:26.008Z,103084.06
2023-03-01T02:31:55.205Z,103037.63
2023-03-01T02:34:25.317Z,103037.97
2023-03-01T02:36:58.475Z,103107.25
2023-03-01T02:39:33.873Z,103119.19
2023-03-01T02:42:00.607Z,103052.78
2023-03-01T02:44:27.080Z,103037.00
2023-03-01T02:46:56.876Z,103090.19
2023-03-01T02:49:32.971Z,103039.91
2023-03-01T02:52:24.032Z,103108.19
2023-03-01T02:55:01.848Z,103100.38
2023-03-01T02:57:30.847Z,103066.25
2023-03-01T03:00:00.572Z,103079.06
2023-03-01T03:02:31.019Z,103141.66
2023-03-01T03:04:57.470Z,103132.56
2023-03-01T03:07:23.951Z,103148.69
2023-03-01T03:09:50.430Z,103146.78
2023-03-01T03:12:16.883Z,103155.22
2023-03-01T03:14:43.451Z,103143.72
2023-03-01T03:17:09.892Z,103167.53
2023-03-01T03:19:36.400Z,103112.63
2023-03-01T03:22:02.864Z,103179.44
2023-03-01T03:24:29.422Z,103158.66
2023-03-01T03:26:55.967Z,103134.59
2023-03-01T03:29:22.461Z,103182.41
2023-03-01T03:31:48.990Z,103190.16
2023-03-01T03:34:15.539Z,103173.31
2023-03-01T03:36:41.960Z,103182.66
2023-03-01T03:39:08.504Z,103234.78
2023-03-01T03:41:35.872Z,103229.59
2023-03-01T03:44:02.301Z,103219.25
2023-03-01T03:46:28.809Z,103217.72
2023-03-01T03:48:55.358Z,103206.44
2023-03-01T03:51:21.828Z,103214.38
2023-03-01T03:53:48.274Z,103236.16
2023-03-01T03:56:15.191Z,103175.63
2023-03-01T03:58:41.823Z,103247.69
2023-03-01T04:01:08.357Z,103257.72
2023-03-01T04:03:35.513Z,103249.53
2023-03-01T04:06:02.849Z,103169.63
2023-03-01T04:08:29.784Z,103206.50
2023-03-01T04:11:01.744Z,103198.16
2023-03-01T04:13:28.224Z,103178.44
2023-03-01T04:15:55.670Z,103198.41
2023-03-01T04:18:24.276Z,103154.56
2023-03-01T04:20:50.908Z,103146.94
2023-03-01T04:23:19.422Z,103159.56
2023-03-01T04:25:55.677Z,103223.84
2023-03-01T04:28:25.231Z,103220.59
2023-03-01T04:30:55.952Z,103135.16
2023-03-01T04:33:23.428Z,103204.56
2023-03-01T04:35:51.029Z,103203.69
2023-03-01T04:38:19.152Z,103198.50
2023-03-01T04:40:45.966Z,103127.88
2023-03-01T04:43:13.467Z,103007.09
2023-03-01T04:45:39.883Z,102835.34
2023-03-01T04:48:06.698Z,102841.28
2023-03-01T04:50:33.561Z,102761.63
2023-03-01T04:53:00.023Z,102730.16
2023-03-01T04:55:28.244Z,102922.19
2023-03-01T04:57:55.710Z,102919.28
2023-03-01T05:00:23.492Z,102938.28
2023-03-01T05:02:55.634Z,102835.16
2023-03-01T05:05:31.892Z,102781.09
2023-03-01T05:08:01.818Z,102714.75
2023-03-01T05:10:29.891Z,102567.31
2023-03-01T05:12:57.138Z,102425.44
2023-03-01T05:15:24.859Z,102432.63
2023-03-01T05:17:51.372Z,102378.56
2023-03-01T05:20:18.436Z,102324.63
2023-03-01T05:22:44.931Z,102264.53
2023-03-01T05:25:11.460Z,102209.78
2023-03-01T05:27:37.894Z,102162.06
2023-03-01T05:30:04.857Z,102126.38
2023-03-01T05:32:31.364Z,102146.97
2023-03-01T05:34:57.855Z,102104.56
2023-03-01T05:37:24.276Z,102024.25
2023-03-01T05:39:51.056Z,102003.66
2023-03-01T05:42:17.596Z,101970.38
2023-03-01T05:44:44.159Z,101929.94
2023-03-01T05:47:10.702Z,101994.63
2023-03-01T05:49:39.628Z,102013.53
2023-03-01T05:52:06.399Z,102013.88
2023-03-01T05:54:32.829Z,101980.91
2023-03-01T05:56:59.382Z,101988.22
2023-03-01T05:59:25.822Z,101967.22
2023-03-01T06:01:52.237Z,101944.72
2023-03-01T06:04:18.831Z,101981.72
2023-03-01T06:06:45.301Z,101981.47
2023-03-01T06:09:11.789Z,101962.56
2023-03-01T06:11:38.267Z,101965.03
2023-03-01T06:14:05.284Z,101947.94
2023-03-01T06:16:32.432Z,101943.47
2023-03-01T06:18:59.034Z,101936.34
2023-03-01T06:21:25.633Z,101947.66
2023-03-01T06:23:52.091Z,101950.56
2023-03-01T06:26:18.604Z,101911.56
2023-03-01T06:28:45.052Z,101910.00
2023-03-01T06:31:11.570Z,101955.63
2023-03-01T06:33:38.101Z,101891.97
2023-03-01T06:36:04.962Z,101930.56
2023-03-01T06:38:31.502Z,101941.53
2023-03-01T06:40:58.025Z,101939.44
2023-03-01T06:43:24.992Z,101890.31
2023-03-01T06:45:51.866Z,101927.03
2023-03-01T06:48:18.441Z,101862.75
2023-03-01T06:50:44.966Z,101913.72
2023-03-01T06:53:11.495Z,101911.81
2023-03-01T06:55:38.057Z,101889.97
2023-03-01T06:58:04.590Z,101878.47
2023-03-01T07:00:32.326Z,101873.19
2023-03-01T07:03:02.541Z,101882.69
2023-03-01T07:05:29.829Z,101867.06
2023-03-01T07:07:56.380Z,101849.69
2023-03-01T07:10:24.723Z,101874.22
2023-03-01T07:12:51.231Z,101866.22
2023-03-01T07:15:17.928Z,101853.59
2023-03-01T07:17:44.457Z,101855.84
2023-03-01T07:20:11.628Z,101856.56
2023-03-01T07:22:41.216Z,101857.94
2023-03-01T07:25:08.035Z,101804.00
2023-03-01T07:27:34.535Z,101825.03
2023-03-01T07:30:01.129Z,101868.03
2023-03-01T07:32:27.739Z,101863.31
2023-03-01T07:34:54.254Z,101859.31
2023-03-01T07:37:20.717Z,101834.41
2023-03-01T07:39:47.263Z,101888.97
2023-03-01T07:42:13.748Z,101904.66
2023-03-01T07:44:40.303Z,101911.75
2023-03-01T07:47:06.801Z,101887.84
2023-03-01T07:49:33.271Z,101952.25
2023-03-01T07:51:59.804Z,101951.06
2023-03-01T07:54:26.572Z,101915.44
2023-03-01T07:56:53.036Z,101965.81
2023-03-01T07:59:19.539Z,101985.34
2023-03-01T08:01:46.031Z,101986.38
2023-03-01T08:04:12.511Z,101990.78
2023-03-01T08:06:38.967Z,101988.91
2023-03-01T08:09:05.482Z,101973.31
2023-03-01T08:11:32.047Z,101988.31
2023-03-01T08:13:58.576Z,101997.34
2023-03-01T08:16:25.273Z,101996.56
2023-03-01T08:18:51.891Z,102000.66
2023-03-01T08:21:19.066Z,101950.25
2023-03-01T08:23:46.042Z,101999.25
2023-03-01T08:26:18.304Z,102071.47
2023-03-01T08:28:45.106Z,102170.59
2023-03-01T08:31:23.581Z,102282.19
2023-03-01T08:33:52.104Z,102487.47
2023-03-01T08:36:19.333Z,102494.94
2023-03-01T08:38:45.832Z,102647.00
2023-03-01T08:41:12.281Z,102649.84
2023-03-01T08:43:39.062Z,102783.25
2023-03-01T08:46:05.561Z,102799.09
2023-03-01T08:48:32.154Z,102857.16
2023-03-01T08:51:08.355Z,102883.25
2023-03-01T08:53:34.800Z,102880.78
2023-03-01T08:56:01.890Z,102789.69
2023-03-01T08:58:28.338Z,102808.88
2023-03-01T09:00:54.916Z,102790.88
2023-03-01T09:03:21.410Z,102797.56
2023-03-01T09:05:47.939Z,102834.78
2023-03-01T09:08:14.541Z,102885.09
2023-03-01T09:10:41.065Z,102856.56
2023-03-01T09:13:07.514Z,102905.63
2023-03-01T09:15:34.214Z,102877.72
2023-03-01T09:18:01.042Z,102873.22
2023-03-01T09:20:27.541Z,102959.38
2023-03-01T09:22:53.978Z,102941.97
2023-03-01T09:25:20.632Z,102966.47
2023-03-01T09:27:47.131Z,102988.13
2023-03-01T09:30:14.335Z,102970.28
2023-03-01T09:32:40.877Z,102933.50
2023-03-01T09:35:07.890Z,102945.72
2023-03-01T09:37:36.875Z,102763.19
2023-03-01T09:40:06.384Z,102810.22
2023-03-01T09:42:35.800Z,102824.31
2023-03-01T09:45:06.326Z,102820.63
2023-03-01T09:47:36.095Z,102765.75
2023-03-01T09:50:18.815Z,102778.94
2023-03-01T09:53:06.380Z,102718.94
2023-03-01T09:56:06.511Z,102704.94
2023-03-01T09:58:59.494Z,102682.72
2023-03-01T10:01:37.757Z,102800.69
2023-03-01T10:04:29.336Z,102895.41
2023-03-01T10:07:25.285Z,102850.38
2023-03-01T10:09:52.064Z,102973.91
2023-03-01T10:12:33.778Z,102893.09
2023-03-01T10:15:22.071Z,102741.72
2023-03-01T10:17:58.764Z,102795.97
2023-03-01T10:20:36.944Z,102903.34
2023-03-01T10:23:03.565Z,102871.44
2023-03-01T10:25:45.536Z,102891.88
2023-03-01T10:28:25.925Z,102851.75
2023-03-01T10:30:53.872Z,102883.09
2023-03-01T10:33:39.228Z,102938.13
2023-03-01T10:36:06.395Z,102732.63
2023-03-01T10:38:55.585Z,102971.44
2023-03-01T10:41:23.629Z,102997.97
2023-03-01T10:44:00.080Z,102698.22
2023-03-01T10:46:31.114Z,102910.09
2023-03-01T10:49:23.570Z,102933.94
2023-03-01T10:51:52.652Z,102787.78
2023-03-01T10:54:37.568Z,102854.16
2023-03-01T10:57:06.258Z,102704.53
2023-03-01T10:59:38.413Z,102670.41
2023-03-01T11:02:23.417Z,102716.34
2023-03-01T11:05:08.957Z,102733.34
2023-03-01T11:07:54.696Z,102881.66
2023-03-01T11:10:27.061Z,102778.81
2023-03-01T11:12:55.262Z,102770.16
2023-03-01T11:15:26.195Z,102729.16
2023-03-01T11:17:57.180Z,102694.75
2023-03-01T11:20:30.795Z,102719.75
2023-03-01T11:23:02.574Z,102667.59
2023-03-01T11:25:36.082Z,102630.03
2023-03-01T11:28:05.122Z,102654.78
2023-03-01T11:31:05.582Z,102660.16
2023-03-01T11:33:46.363Z,102600.84
2023-03-01T11:36:43.934Z,102538.69
2023-03-01T11:39:43.903Z,102645.47
2023-03-01T11:42:20.604Z,102670.13
2023-03-01T11:44:55.783Z,102522.81
2023-03-01T11:47:42.705Z,102599.25
2023-03-01T11:50:09.386Z,102481.31
2023-03-01T11:53:24.393Z,102485.94
2023-03-01T11:56:03.763Z,102527.50
2023-03-01T11:59:03.711Z,102499.19
2023-03-01T12:01:45.118Z,102483.09
2023-03-01T12:04:33.413Z,102471.88
2023-03-01T12:07:09.184Z,102456.59
2023-03-01T12:10:07.600Z,102539.56
2023-03-01T12:12:46.368Z,102411.50
2023-03-01T12:15:44.804Z,102414.34
2023-03-01T12:18:14.424Z,102291.06
2023-03-01T12:20:56.077Z,102402.78
2023-03-01T12:24:01.036Z,102280.53
2023-03-01T12:26:41.188Z,102220.63
2023-03-01T12:29:26.439Z,102326.34
2023-03-01T12:32:11.967Z,102226.13
2023-03-01T12:35:12.466Z,102271.72
2023-03-01T12:37:51.223Z,102373.28
2023-03-01T12:40:47.033Z,102344.53
2023-03-01T12:43:51.524Z,102248.28
2023-03-01T12:46:33.202Z,102174.44
2023-03-01T12:49:27.221Z,102137.59
2023-03-01T12:52:24.087Z,102186.56
2023-03-01T12:54:54.295Z,102279.59
2023-03-01T12:57:43.501Z,102216.00
2023-03-01T13:00:31.876Z,102196.97
2023-03-01T13:03:49.719Z,102114.63
2023-03-01T13:06:19.292Z,102146.91
2023-03-01T13:08:58.035Z,102037.47
2023-03-01T13:11:25.184Z,101854.94
2023-03-01T13:13:51.669Z,101950.88
2023-03-01T13:16:30.994Z,101993.34
2023-03-01T13:19:10.901Z,101892.91
2023-03-01T13:21:37.467Z,101984.97
2023-03-01T13:24:04.438Z,102104.97
2023-03-01T13:26:31.399Z,102009.13
2023-03-01T13:28:59.020Z,101987.22
2023-03-01T13:31:28.543Z,101962.75
2023-03-01T13:33:59.153Z,101835.34
2023-03-01T13:36:28.888Z,101977.56
2023-03-01T13:38:55.612Z,101937.88
2023-03-01T13:41:40.527Z,101843.81
2023-03-01T13:44:28.140Z,101942.41
2023-03-01T13:47:00.187Z,102069.06
2023-03-01T13:49:45.491Z,102049.19
2023-03-01T13:52:39.953Z,101891.81
2023-03-01T13:55:16.995Z,102004.06
2023-03-01T13:57:47.741Z,102031.84
2023-03-01T14:00:28.493Z,102194.16
2023-03-01T14:03:06.115Z,102034.72
2023-03-01T14:05:34.373Z,102034.03
2023-03-01T14:08:00.809Z,101851.38
2023-03-01T14:10:36.257Z,102097.31
2023-03-01T14:13:31.925Z,101774.97
2023-03-01T14:16:13.675Z,102025.19
2023-03-01T14:18:53.008Z,102209.72
2023-03-01T14:21:19.550Z,102183.88
2023-03-01T14:23:47.060Z,101867.25
2023-03-01T14:26:13.567Z,102022.31
2023-03-01T14:28:43.008Z,101785.69
2023-03-01T14:31:52.026Z,102042.69
2023-03-01T14:34:25.323Z,101546.16
2023-03-01T14:36:51.969Z,101746.22
2023-03-01T14:39:26.036Z,102055.81
2023-03-01T14:41:53.374Z,102026.69
2023-03-01T14:44:24.890Z,102091.16
2023-03-01T14:46:57.695Z,101966.31
2023-03-01T14:49:30.402Z,101859.28
2023-03-01T14:52:06.083Z,101817.94
2023-03-01T14:54:42.290Z,101795.00
2023-03-01T14:57:24.673Z,101661.28
2023-03-01T14:59:54.418Z,101848.88
2023-03-01T15:02:25.468Z,101719.63
2023-03-01T15:05:01.122Z,101543.59
2023-03-01T15:07:31.556Z,101531.09
2023-03-01T15:09:59.474Z,101642.78
2023-03-01T15:12:35.933Z,101783.28
2023-03-01T15:15:19.816Z,101656.84
2023-03-01T15:17:53.792Z,101820.38
2023-03-01T15:20:20.634Z,102010.28
2023-03-01T15:22:47.698Z,101874.47
2023-03-01T15:25:36.341Z,101714.19
2023-03-01T15:28:03.508Z,101917.13
2023-03-01T15:30:32.087Z,101847.31
2023-03-01T15:33:30.719Z,101785.81
2023-03-01T15:35:59.721Z,101760.31
2023-03-01T15:38:35.205Z,101745.19
2023-03-01T15:41:04.698Z,101744.06
2023-03-01T15:43:57.707Z,101761.44
2023-03-01T15:46:36.536Z,101805.19
2023-03-01T15:49:05.711Z,101869.22
2023-03-01T15:51:34.043Z,102023.25
2023-03-01T15:54:04.820Z,101779.44
2023-03-01T15:56:31.896Z,101697.22
2023-03-01T15:59:00.187Z,101762.56
2023-03-01T16:01:27.315Z,101779.81
2023-03-01T16:03:54.042Z,101807.94
2023-03-01T16:06:20.851Z,101691.00
2023-03-01T16:08:47.559Z,101812.94
2023-03-01T16:11:19.279Z,101870.47
2023-03-01T16:13:46.566Z,101761.53
2023-03-01T16:16:15.277Z,101861.09
2023-03-01T16:18:43.078Z,101787.91
2023-03-01T16:21:17.176Z,101724.59
2023-03-01T16:23:44.847Z,101745.09
2023-03-01T16:26:11.701Z,101665.63
2023-03-01T16:28:38.246Z,101686.09
2023-03-01T16:31:04.792Z,101554.31
2023-03-01T16:33:33.542Z,101595.06
2023-03-01T16:36:02.041Z,101502.81
2023-03-01T16:38:29.578Z,101539.56
2023-03-01T16:40:56.204Z,101466.56
2023-03-01T16:43:22.682Z,101470.50
2023-03-01T16:45:49.197Z,101458.16
2023-03-01T16:48:15.882Z,101442.31
2023-03-01T16:50:42.439Z,101533.88
2023-03-01T16:53:09.319Z,101576.06
2023-03-01T16:55:35.938Z,101574.16
2023-03-01T16:58:03.286Z,101632.69
2023-03-01T17:00:29.774Z,101736.75
2023-03-01T17:02:56.420Z,101765.00
2023-03-01T17:05:22.910Z,101767.88
2023-03-01T17:07:49.418Z,101799.00
2023-03-01T17:10:15.959Z,101758.44
2023-03-01T17:12:42.627Z,101740.44
2023-03-01T17:15:10.053Z,101800.53
2023-03-01T17:17:36.606Z,101768.94
2023-03-01T17:20:04.785Z,101721.44
2023-03-01T17:22:31.547Z,101650.16
2023-03-01T17:24:58.249Z,101740.47
2023-03-01T17:27:25.584Z,101620.94
2023-03-01T17:29:52.289Z,101687.09
2023-03-01T17:32:19.060Z,101682.94
2023-03-01T17:34:45.703Z,101656.34
2023-03-01T17:37:12.249Z,101667.25
2023-03-01T17:39:38.697Z,101792.66
2023-03-01T17:42:05.675Z,101759.13
2023-03-01T17:44:33.187Z,101811.50
2023-03-01T17:47:00.169Z,101800.63
2023-03-01T17:49:26.654Z,101780.22
2023-03-01T17:51:53.159Z,101770.88
2023-03-01T17:54:19.833Z,101808.53
2023-03-01T17:56:46.512Z,101823.75
2023-03-01T17:59:13.104Z,101771.69
2023-03-01T18:01:42.177Z,101826.78
2023-03-01T18:04:09.245Z,101788.97
2023-03-01T18:06:37.439Z,101757.56
2023-03-01T18:09:04.576Z,101739.88
2023-03-01T18:11:34.450Z,101786.78
2023-03-01T18:14:01.434Z,101768.13
2023-03-01T18:16:28.160Z,101799.28
2023-03-01T18:18:56.465Z,101790.44
2023-03-01T18:21:23.088Z,101811.66
2023-03-01T18:23:49.824Z,101827.84
2023-03-01T18:26:16.363Z,101825.41
2023-03-01T18:28:43.426Z,101829.75
2023-03-01T18:31:10.529Z,101836.56
2023-03-01T18:33:38.318Z,101772.75
2023-03-01T18:36:06.305Z,101800.63
2023-03-01T18:38:32.960Z,101736.56
2023-03-01T18:40:59.454Z,101806.59
2023-03-01T18:43:26.230Z,101788.50
2023-03-01T18:45:57.455Z,101787.00
2023-03-01T18:48:24.200Z,101763.63
2023-03-01T18:50:51.174Z,101776.53
2023-03-01T18:53:17.714Z,101815.16
2023-03-01T18:55:44.228Z,101788.47
2023-03-01T18:58:10.726Z,101815.41
2023-03-01T19:00:37.234Z,101806.44
2023-03-01T19:03:04.084Z,101786.56
2023-03-01T19:05:31.579Z,101744.63
2023-03-01T19:07:58.229Z,101764.88
2023-03-01T19:10:25.295Z,101708.56
2023-03-01T19:12:51.827Z,101781.34
2023-03-01T19:15:18.529Z,101753.59
2023-03-01T19:17:45.098Z,101763.09
2023-03-01T19:20:12.426Z,101763.38
2023-03-01T19:22:39.414Z,101760.25
2023-03-01T19:25:06.531Z,101754.72
2023-03-01T19:27:33.035Z,101755.88
2023-03-01T19:29:59.520Z,101780.00
2023-03-01T19:32:26.093Z,101790.16
2023-03-01T19:34:52.567Z,101782.25
2023-03-01T19:37:19.130Z,101796.97
2023-03-01T19:39:45.783Z,101773.13
2023-03-01T19:42:12.262Z,101830.97
2023-03-01T19:44:38.861Z,101794.34
2023-03-01T19:47:05.500Z,101809.75
2023-03-01T19:49:32.041Z,101832.44
2023-03-01T19:51:58.907Z,101789.81
2023-03-01T19:54:25.461Z,101833.13
2023-03-01T19:56:52.287Z,101809.19
2023-03-01T19:59:18.942Z,101804.84
2023-03-01T20:01:45.643Z,101780.41
2023-03-01T20:04:12.772Z,101796.63
2023-03-01T20:06:39.727Z,101772.47
2023-03-01T20:09:20.362Z,101760.72
2023-03-01T20:11:47.775Z,101795.91
2023-03-01T20:14:14.283Z,101785.19
2023-03-01T20:16:41.059Z,101750.31
2023-03-01T20:19:07.855Z,101765.81
2023-03-01T20:21:34.532Z,101789.53
2023-03-01T20:24:01.401Z,101768.38
2023-03-01T20:26:28.011Z,101820.69
2023-03-01T20:28:56.527Z,101762.91
2023-03-01T20:31:24.518Z,101766.31
2023-03-01T20:33:51.025Z,101809.63
2023-03-01T20:36:18.268Z,101770.25
2023-03-01T20:38:44.710Z,101792.84
2023-03-01T20:41:12.910Z,101720.22
2023-03-01T20:43:41.879Z,101770.22
2023-03-01T20:46:12.101Z,101753.53
2023-03-01T20:48:40.933Z,101768.94
2023-03-01T20:51:08.953Z,101771.66
2023-03-01T20:53:35.890Z,101773.63
2023-03-01T20:56:07.985Z,101709.00
2023-03-01T20:58:34.454Z,101781.53
2023-03-01T21:01:01.597Z,101758.69
2023-03-01T21:03:28.353Z,101781.19
2023-03-01T21:05:56.478Z,101806.66
2023-03-01T21:08:23.189Z,101781.38
2023-03-01T21:10:53.821Z,101813.41
2023-03-01T21:13:21.075Z,101790.50
2023-03-01T21:16:00.540Z,101782.69
2023-03-01T21:18:28.203Z,101804.19
2023-03-01T21:20:54.742Z,101818.34
2023-03-01T21:23:21.242Z,101755.59
2023-03-01T21:25:47.753Z,101796.75
2023-03-01T21:28:14.281Z,101813.13
2023-03-01T21:30:40.747Z,101822.34
2023-03-01T21:33:07.215Z,101845.63
2023-03-01T21:35:33.751Z,101822.13
2023-03-01T21:38:00.236Z,101831.50
2023-03-01T21:40:26.688Z,101844.59
2023-03-01T21:42:53.222Z,101808.94
2023-03-01T21:45:19.663Z,101818.88
2023-03-01T21:47:46.072Z,101849.28
2023-03-01T21:50:12.556Z,101882.22
2023-03-01T21:52:39.110Z,101827.38
2023-03-01T21:55:06.118Z,101842.13
2023-03-01T21:57:32.679Z,101848.69
2023-03-01T21:59:59.181Z,101841.19
2023-03-01T22:02:25.708Z,101838.88
2023-03-01T22:04:53.230Z,101838.63
2023-03-01T22:07:19.793Z,101864.00
2023-03-01T22:09:46.246Z,101803.69
2023-03-01T22:12:12.798Z,101859.53
2023-03-01T22:14:39.258Z,101844.03
2023-03-01T22:17:05.732Z,101842.25
2023-03-01T22:19:32.379Z,101852.19
2023-03-01T22:21:58.904Z,101789.19
2023-03-01T22:24:25.894Z,101847.16
2023-03-01T22:26:54.197Z,101777.03
2023-03-01T22:29:28.893Z,101833.03
2023-03-01T22:31:56.926Z,101758.31
2023-03-01T22:34:23.898Z,101797.25
2023-03-01T22:36:50.623Z,101808.22
2023-03-01T22:39:19.100Z,101759.47
2023-03-01T22:41:46.833Z,101791.50
2023-03-01T22:44:15.848Z,101804.50
2023-03-01T22:46:42.728Z,101809.38
2023-03-01T22:49:10.213Z,101789.75
2023-03-01T22:51:39.206Z,101790.56
2023-03-01T22:54:07.033Z,101798.72
2023-03-01T22:56:35.827Z,101753.03
2023-03-01T22:59:08.603Z,101750.97
2023-03-01T23:01:36.065Z,101787.66
2023-03-01T23:04:03.247Z,101717.88
2023-03-01T23:06:30.302Z,101755.72
2023-03-01T23:09:00.209Z,101744.38
2023-03-01T23:11:28.185Z,101800.28
2023-03-01T23:13:55.543Z,101800.03
2023-03-01T23:16:23.366Z,101812.31
2023-03-01T23:18:49.911Z,101798.28
2023-03-01T23:21:18.830Z,101751.53
2023-03-01T23:23:46.489Z,101761.94
2023-03-01T23:26:14.281Z,101769.66
2023-03-01T23:28:41.173Z,101799.69
2023-03-01T23:31:14.052Z,101777.47
2023-03-01T23:33:41.398Z,101759.22
2023-03-01T23:36:22.646Z,101787.53
2023-03-01T23:38:53.868Z,101700.13
2023-03-01T23:41:23.066Z,101794.28
2023-03-01T23:43:52.476Z,101772.91
2023-03-01T23:46:21.148Z,101779.13
2023-03-01T23:48:48.172Z,101756.09
2023-03-01T23:51:15.903Z,101762.75
2023-03-01T23:53:45.760Z,101744.88
2023-03-01T23:56:13.476Z,101776.06
2023-03-01T23:58:39.966Z,101766.94
